Pagina principale
METAR-TAF:

METAR-TAF

Aeroporti :

Aeroporto di Crotone

Crotone, Italia

latitudine: 39-00N, longitudine: 017-04E, altezza: 155 m

Osservazione

Il bollettino è stato emesso 58 minuti fa, alle 09:50 UTC
Vento 14 kt da sud/sud-ovest
Temperature 16°C
Umidità 82%
Pressione 1023 hPa
Visibilità 10 km o più
Nubi sparse ad un'altezza di 1500 ft

METAR: LIBC 210950Z 21014KT 9999 SCT015 16/13 Q1023

Ora: 12:48 (10:48 UTC)

Previsione

Il bollettino è stato emesso 5 ore e 48 minuti fa, alle 05:00 UTC
Previsione valida dal 21 alle 06 UTC al 22 alle 06 UTC
Vento 5 kt da direzioni variabili
Visibilità 10 km o più
nessuna nube inferiore a 1500 m e nessun cumulonembo
Evoluzione graduale
dal 21 alle 08 UTC al 21 alle 10 UTC
Vento 12 kt da est/sud-est
Evoluzione graduale
dal 21 alle 17 UTC al 21 alle 19 UTC
Vento 5 kt da direzioni variabili

TAF: LIBC 210500Z 2106/2206 VRB05KT CAVOK BECMG 2108/2110 11012KT BECMG 2117/2119 VRB05KT

Osservazioni e previsioni meteorologiche di più di 4000 aeroporti (messaggi METAR e TAF).

Le stazioni disponibili sono rappresentate dai dischi gialli e rossi sulla carta.

Puntare il mouse per vedere il nome della stazione.

Clicca sopra per visualizzare le osservazioni e previsioni meteorologiche.

Per cambiare la mappa : fare clic sui pulsanti verdi con una croce nera per ingrandire, il pulsante verde con un trattino per diminuire, o sulla freccia verde per le mappe adiacenti.


METAR-TAF: